sensor_id;sensor_type;location;lat;lon;timestamp;P1;durP1;ratioP1;P2;durP2;ratioP2
40515;SDS011;26216;53.724;9.898;2022-08-19T00:01:35;4.50;;;4.00;;
40515;SDS011;26216;53.724;9.898;2022-08-19T00:04:03;6.90;;;5.85;;
40515;SDS011;26216;53.724;9.898;2022-08-19T00:06:33;6.07;;;5.38;;
40515;SDS011;26216;53.724;9.898;2022-08-19T00:09:00;6.10;;;4.82;;
40515;SDS011;26216;53.724;9.898;2022-08-19T00:11:27;6.07;;;5.10;;
40515;SDS011;26216;53.724;9.898;2022-08-19T00:13:54;7.32;;;4.78;;
40515;SDS011;26216;53.724;9.898;2022-08-19T00:16:22;5.90;;;5.30;;
40515;SDS011;26216;53.724;9.898;2022-08-19T00:18:49;5.85;;;5.25;;
40515;SDS011;26216;53.724;9.898;2022-08-19T00:21:15;7.95;;;6.90;;
40515;SDS011;26216;53.724;9.898;2022-08-19T00:23:41;7.30;;;6.03;;
40515;SDS011;26216;53.724;9.898;2022-08-19T00:26:08;12.40;;;9.85;;
40515;SDS011;26216;53.724;9.898;2022-08-19T00:28:35;12.10;;;9.82;;
40515;SDS011;26216;53.724;9.898;2022-08-19T00:31:02;10.50;;;8.82;;
40515;SDS011;26216;53.724;9.898;2022-08-19T00:33:29;10.05;;;7.78;;
40515;SDS011;26216;53.724;9.898;2022-08-19T00:35:58;11.82;;;8.43;;
40515;SDS011;26216;53.724;9.898;2022-08-19T00:38:30;9.75;;;8.75;;
40515;SDS011;26216;53.724;9.898;2022-08-19T00:40:56;9.07;;;8.15;;
40515;SDS011;26216;53.724;9.898;2022-08-19T00:43:24;13.73;;;11.77;;
40515;SDS011;26216;53.724;9.898;2022-08-19T00:45:51;15.00;;;11.80;;
40515;SDS011;26216;53.724;9.898;2022-08-19T00:48:18;15.13;;;12.35;;
40515;SDS011;26216;53.724;9.898;2022-08-19T00:50:45;17.85;;;15.80;;
40515;SDS011;26216;53.724;9.898;2022-08-19T00:53:15;12.93;;;10.57;;
40515;SDS011;26216;53.724;9.898;2022-08-19T00:55:47;14.82;;;12.65;;
40515;SDS011;26216;53.724;9.898;2022-08-19T01:00:42;12.48;;;9.90;;
40515;SDS011;26216;53.724;9.898;2022-08-19T01:03:10;16.38;;;13.88;;
40515;SDS011;26216;53.724;9.898;2022-08-19T01:05:39;13.70;;;11.35;;
40515;SDS011;26216;53.724;9.898;2022-08-19T01:08:07;13.57;;;10.65;;
40515;SDS011;26216;53.724;9.898;2022-08-19T01:10:39;14.38;;;10.55;;
40515;SDS011;26216;53.724;9.898;2022-08-19T01:13:09;11.93;;;9.20;;
40515;SDS011;26216;53.724;9.898;2022-08-19T01:15:40;13.02;;;9.70;;
40515;SDS011;26216;53.724;9.898;2022-08-19T01:18:13;10.95;;;9.50;;
40515;SDS011;26216;53.724;9.898;2022-08-19T01:20:41;10.45;;;7.97;;
40515;SDS011;26216;53.724;9.898;2022-08-19T01:23:08;14.23;;;10.02;;
40515;SDS011;26216;53.724;9.898;2022-08-19T01:25:35;16.88;;;11.63;;
40515;SDS011;26216;53.724;9.898;2022-08-19T01:28:14;12.45;;;8.80;;
40515;SDS011;26216;53.724;9.898;2022-08-19T01:30:45;14.63;;;11.23;;
40515;SDS011;26216;53.724;9.898;2022-08-19T01:33:11;16.98;;;12.20;;
40515;SDS011;26216;53.724;9.898;2022-08-19T01:35:38;18.73;;;13.15;;
40515;SDS011;26216;53.724;9.898;2022-08-19T01:38:06;16.85;;;12.43;;
40515;SDS011;26216;53.724;9.898;2022-08-19T01:40:36;10.98;;;8.38;;
40515;SDS011;26216;53.724;9.898;2022-08-19T01:43:03;11.90;;;8.43;;
40515;SDS011;26216;53.724;9.898;2022-08-19T01:45:31;14.50;;;10.85;;
40515;SDS011;26216;53.724;9.898;2022-08-19T01:47:58;12.05;;;9.43;;
40515;SDS011;26216;53.724;9.898;2022-08-19T01:50:25;22.95;;;13.82;;
40515;SDS011;26216;53.724;9.898;2022-08-19T01:52:51;15.77;;;11.10;;
40515;SDS011;26216;53.724;9.898;2022-08-19T01:55:18;14.63;;;9.30;;
40515;SDS011;26216;53.724;9.898;2022-08-19T01:57:47;16.85;;;9.82;;
40515;SDS011;26216;53.724;9.898;2022-08-19T02:00:19;18.42;;;12.25;;
40515;SDS011;26216;53.724;9.898;2022-08-19T02:02:47;23.30;;;13.00;;
40515;SDS011;26216;53.724;9.898;2022-08-19T02:05:13;20.48;;;12.57;;
40515;SDS011;26216;53.724;9.898;2022-08-19T02:07:39;14.82;;;10.27;;
40515;SDS011;26216;53.724;9.898;2022-08-19T02:10:07;17.63;;;12.63;;
40515;SDS011;26216;53.724;9.898;2022-08-19T02:12:36;26.25;;;15.52;;
40515;SDS011;26216;53.724;9.898;2022-08-19T02:15:02;22.95;;;15.98;;
40515;SDS011;26216;53.724;9.898;2022-08-19T02:17:29;27.60;;;16.30;;
40515;SDS011;26216;53.724;9.898;2022-08-19T02:19:56;18.98;;;13.73;;
40515;SDS011;26216;53.724;9.898;2022-08-19T02:22:22;25.80;;;14.95;;
40515;SDS011;26216;53.724;9.898;2022-08-19T02:24:50;23.05;;;14.05;;
40515;SDS011;26216;53.724;9.898;2022-08-19T02:27:20;19.27;;;12.75;;
40515;SDS011;26216;53.724;9.898;2022-08-19T02:29:47;16.75;;;11.73;;
40515;SDS011;26216;53.724;9.898;2022-08-19T02:32:14;14.05;;;10.70;;
40515;SDS011;26216;53.724;9.898;2022-08-19T02:34:41;14.65;;;10.32;;
40515;SDS011;26216;53.724;9.898;2022-08-19T02:37:07;17.98;;;12.27;;
40515;SDS011;26216;53.724;9.898;2022-08-19T02:39:56;17.83;;;12.55;;
40515;SDS011;26216;53.724;9.898;2022-08-19T02:42:22;13.60;;;9.85;;
40515;SDS011;26216;53.724;9.898;2022-08-19T02:44:48;12.85;;;9.35;;
40515;SDS011;26216;53.724;9.898;2022-08-19T02:47:14;17.00;;;11.75;;
40515;SDS011;26216;53.724;9.898;2022-08-19T02:49:40;15.20;;;11.65;;
40515;SDS011;26216;53.724;9.898;2022-08-19T02:52:07;13.68;;;10.35;;
40515;SDS011;26216;53.724;9.898;2022-08-19T02:54:33;15.38;;;9.57;;
40515;SDS011;26216;53.724;9.898;2022-08-19T02:56:59;13.73;;;9.98;;
40515;SDS011;26216;53.724;9.898;2022-08-19T02:59:25;10.10;;;8.20;;
40515;SDS011;26216;53.724;9.898;2022-08-19T03:01:51;11.35;;;8.65;;
40515;SDS011;26216;53.724;9.898;2022-08-19T03:04:17;8.63;;;6.05;;
40515;SDS011;26216;53.724;9.898;2022-08-19T03:06:45;6.57;;;5.88;;
40515;SDS011;26216;53.724;9.898;2022-08-19T03:09:12;7.00;;;5.28;;
40515;SDS011;26216;53.724;9.898;2022-08-19T03:11:38;8.73;;;6.82;;
40515;SDS011;26216;53.724;9.898;2022-08-19T03:14:05;9.10;;;7.85;;
40515;SDS011;26216;53.724;9.898;2022-08-19T03:16:33;7.35;;;5.70;;
40515;SDS011;26216;53.724;9.898;2022-08-19T03:19:04;7.47;;;6.20;;
40515;SDS011;26216;53.724;9.898;2022-08-19T03:21:31;10.27;;;7.75;;
40515;SDS011;26216;53.724;9.898;2022-08-19T03:23:59;10.15;;;7.70;;
40515;SDS011;26216;53.724;9.898;2022-08-19T03:26:30;8.00;;;6.35;;
40515;SDS011;26216;53.724;9.898;2022-08-19T03:28:56;11.75;;;7.97;;
40515;SDS011;26216;53.724;9.898;2022-08-19T03:31:23;11.35;;;8.23;;
40515;SDS011;26216;53.724;9.898;2022-08-19T03:33:51;10.65;;;8.00;;
40515;SDS011;26216;53.724;9.898;2022-08-19T03:36:24;9.07;;;7.00;;
40515;SDS011;26216;53.724;9.898;2022-08-19T03:38:53;12.00;;;8.05;;
40515;SDS011;26216;53.724;9.898;2022-08-19T03:41:22;10.07;;;7.50;;
40515;SDS011;26216;53.724;9.898;2022-08-19T03:43:50;14.95;;;9.48;;
40515;SDS011;26216;53.724;9.898;2022-08-19T03:46:18;11.75;;;8.35;;
40515;SDS011;26216;53.724;9.898;2022-08-19T03:48:46;10.93;;;8.45;;
40515;SDS011;26216;53.724;9.898;2022-08-19T03:51:17;11.40;;;7.82;;
40515;SDS011;26216;53.724;9.898;2022-08-19T03:53:51;9.85;;;7.88;;
40515;SDS011;26216;53.724;9.898;2022-08-19T03:56:19;9.68;;;7.72;;
40515;SDS011;26216;53.724;9.898;2022-08-19T03:58:44;11.85;;;8.18;;
40515;SDS011;26216;53.724;9.898;2022-08-19T04:01:12;13.32;;;9.35;;
40515;SDS011;26216;53.724;9.898;2022-08-19T04:03:40;13.32;;;9.35;;
40515;SDS011;26216;53.724;9.898;2022-08-19T04:06:26;13.00;;;10.10;;
40515;SDS011;26216;53.724;9.898;2022-08-19T04:08:58;15.90;;;11.65;;
40515;SDS011;26216;53.724;9.898;2022-08-19T04:11:28;15.13;;;10.95;;
40515;SDS011;26216;53.724;9.898;2022-08-19T04:13:55;20.92;;;13.98;;
40515;SDS011;26216;53.724;9.898;2022-08-19T04:16:23;16.08;;;11.63;;
40515;SDS011;26216;53.724;9.898;2022-08-19T04:18:54;18.90;;;13.85;;
40515;SDS011;26216;53.724;9.898;2022-08-19T04:21:22;17.38;;;14.77;;
40515;SDS011;26216;53.724;9.898;2022-08-19T04:23:50;17.42;;;12.50;;
40515;SDS011;26216;53.724;9.898;2022-08-19T04:26:19;13.60;;;10.48;;
40515;SDS011;26216;53.724;9.898;2022-08-19T04:28:48;15.17;;;11.97;;
40515;SDS011;26216;53.724;9.898;2022-08-19T04:31:15;17.38;;;12.65;;
40515;SDS011;26216;53.724;9.898;2022-08-19T04:33:42;17.80;;;13.95;;
40515;SDS011;26216;53.724;9.898;2022-08-19T04:36:08;18.23;;;13.25;;
40515;SDS011;26216;53.724;9.898;2022-08-19T04:38:46;17.95;;;13.77;;
40515;SDS011;26216;53.724;9.898;2022-08-19T04:41:12;23.83;;;17.27;;
40515;SDS011;26216;53.724;9.898;2022-08-19T04:43:57;17.45;;;14.25;;
40515;SDS011;26216;53.724;9.898;2022-08-19T04:46:23;19.77;;;15.18;;
40515;SDS011;26216;53.724;9.898;2022-08-19T04:48:49;23.98;;;17.50;;
40515;SDS011;26216;53.724;9.898;2022-08-19T04:51:14;21.52;;;15.95;;
40515;SDS011;26216;53.724;9.898;2022-08-19T04:53:41;17.90;;;13.63;;
40515;SDS011;26216;53.724;9.898;2022-08-19T04:56:09;19.17;;;15.20;;
40515;SDS011;26216;53.724;9.898;2022-08-19T04:58:37;17.75;;;13.45;;
40515;SDS011;26216;53.724;9.898;2022-08-19T05:01:08;19.17;;;14.65;;
40515;SDS011;26216;53.724;9.898;2022-08-19T05:03:36;21.05;;;14.73;;
40515;SDS011;26216;53.724;9.898;2022-08-19T05:06:04;18.30;;;14.55;;
40515;SDS011;26216;53.724;9.898;2022-08-19T05:08:32;21.10;;;16.38;;
40515;SDS011;26216;53.724;9.898;2022-08-19T05:10:59;26.20;;;18.95;;
40515;SDS011;26216;53.724;9.898;2022-08-19T05:13:25;17.55;;;15.45;;
40515;SDS011;26216;53.724;9.898;2022-08-19T05:15:55;19.30;;;14.70;;
40515;SDS011;26216;53.724;9.898;2022-08-19T05:18:22;17.90;;;13.77;;
40515;SDS011;26216;53.724;9.898;2022-08-19T05:21:08;21.33;;;15.50;;
40515;SDS011;26216;53.724;9.898;2022-08-19T05:23:53;19.63;;;13.52;;
40515;SDS011;26216;53.724;9.898;2022-08-19T05:26:19;18.77;;;14.27;;
40515;SDS011;26216;53.724;9.898;2022-08-19T05:28:45;16.98;;;12.43;;
40515;SDS011;26216;53.724;9.898;2022-08-19T05:31:11;16.30;;;12.38;;
40515;SDS011;26216;53.724;9.898;2022-08-19T05:33:37;24.80;;;16.27;;
40515;SDS011;26216;53.724;9.898;2022-08-19T05:36:05;19.20;;;13.93;;
40515;SDS011;26216;53.724;9.898;2022-08-19T05:38:33;17.90;;;12.07;;
40515;SDS011;26216;53.724;9.898;2022-08-19T05:41:00;18.77;;;13.43;;
40515;SDS011;26216;53.724;9.898;2022-08-19T05:43:36;18.75;;;12.95;;
40515;SDS011;26216;53.724;9.898;2022-08-19T05:46:03;19.35;;;13.63;;
40515;SDS011;26216;53.724;9.898;2022-08-19T05:48:31;16.88;;;11.85;;
40515;SDS011;26216;53.724;9.898;2022-08-19T05:51:02;17.92;;;12.98;;
40515;SDS011;26216;53.724;9.898;2022-08-19T05:53:32;14.73;;;11.10;;
40515;SDS011;26216;53.724;9.898;2022-08-19T05:56:06;23.95;;;17.02;;
40515;SDS011;26216;53.724;9.898;2022-08-19T05:58:34;19.17;;;13.82;;
40515;SDS011;26216;53.724;9.898;2022-08-19T06:01:02;17.70;;;12.05;;
40515;SDS011;26216;53.724;9.898;2022-08-19T06:03:34;27.55;;;15.77;;
40515;SDS011;26216;53.724;9.898;2022-08-19T06:06:00;19.08;;;14.05;;
40515;SDS011;26216;53.724;9.898;2022-08-19T06:08:27;20.83;;;14.18;;
40515;SDS011;26216;53.724;9.898;2022-08-19T06:10:53;20.83;;;14.43;;
40515;SDS011;26216;53.724;9.898;2022-08-19T06:13:20;17.40;;;12.90;;
40515;SDS011;26216;53.724;9.898;2022-08-19T06:15:48;20.48;;;14.82;;
40515;SDS011;26216;53.724;9.898;2022-08-19T06:18:14;17.92;;;12.82;;
40515;SDS011;26216;53.724;9.898;2022-08-19T06:20:41;22.42;;;15.23;;
40515;SDS011;26216;53.724;9.898;2022-08-19T06:23:07;16.90;;;12.48;;
40515;SDS011;26216;53.724;9.898;2022-08-19T06:25:34;15.50;;;11.55;;
40515;SDS011;26216;53.724;9.898;2022-08-19T06:28:01;17.77;;;13.45;;
40515;SDS011;26216;53.724;9.898;2022-08-19T06:30:28;15.65;;;12.52;;
40515;SDS011;26216;53.724;9.898;2022-08-19T06:32:54;20.92;;;14.30;;
40515;SDS011;26216;53.724;9.898;2022-08-19T06:35:20;19.02;;;13.77;;
40515;SDS011;26216;53.724;9.898;2022-08-19T06:37:46;19.83;;;15.40;;
40515;SDS011;26216;53.724;9.898;2022-08-19T06:40:12;16.30;;;13.05;;
40515;SDS011;26216;53.724;9.898;2022-08-19T06:42:38;22.65;;;13.70;;
40515;SDS011;26216;53.724;9.898;2022-08-19T06:45:04;18.33;;;13.13;;
40515;SDS011;26216;53.724;9.898;2022-08-19T06:47:31;14.18;;;11.85;;
40515;SDS011;26216;53.724;9.898;2022-08-19T06:50:00;11.00;;;9.30;;
40515;SDS011;26216;53.724;9.898;2022-08-19T06:52:28;11.27;;;8.98;;
40515;SDS011;26216;53.724;9.898;2022-08-19T06:54:58;14.25;;;11.80;;
40515;SDS011;26216;53.724;9.898;2022-08-19T06:57:25;15.27;;;12.45;;
40515;SDS011;26216;53.724;9.898;2022-08-19T06:59:52;11.20;;;9.18;;
40515;SDS011;26216;53.724;9.898;2022-08-19T07:02:18;12.50;;;10.98;;
40515;SDS011;26216;53.724;9.898;2022-08-19T07:04:45;11.80;;;9.32;;
40515;SDS011;26216;53.724;9.898;2022-08-19T07:07:12;11.00;;;9.63;;
40515;SDS011;26216;53.724;9.898;2022-08-19T07:09:43;9.95;;;8.35;;
40515;SDS011;26216;53.724;9.898;2022-08-19T07:12:10;13.50;;;10.23;;
40515;SDS011;26216;53.724;9.898;2022-08-19T07:14:40;10.98;;;9.57;;
40515;SDS011;26216;53.724;9.898;2022-08-19T07:17:08;16.85;;;13.40;;
40515;SDS011;26216;53.724;9.898;2022-08-19T07:19:36;19.83;;;14.80;;
40515;SDS011;26216;53.724;9.898;2022-08-19T07:22:04;19.90;;;15.93;;
40515;SDS011;26216;53.724;9.898;2022-08-19T07:24:32;16.35;;;11.95;;
40515;SDS011;26216;53.724;9.898;2022-08-19T07:26:59;17.13;;;11.95;;
40515;SDS011;26216;53.724;9.898;2022-08-19T07:29:31;15.73;;;11.65;;
40515;SDS011;26216;53.724;9.898;2022-08-19T07:34:25;17.23;;;13.27;;
40515;SDS011;26216;53.724;9.898;2022-08-19T07:36:53;16.85;;;13.57;;
40515;SDS011;26216;53.724;9.898;2022-08-19T07:39:27;13.98;;;11.20;;
40515;SDS011;26216;53.724;9.898;2022-08-19T07:41:56;15.65;;;13.77;;
40515;SDS011;26216;53.724;9.898;2022-08-19T07:44:23;17.77;;;14.30;;
40515;SDS011;26216;53.724;9.898;2022-08-19T07:46:52;16.50;;;12.75;;
40515;SDS011;26216;53.724;9.898;2022-08-19T07:49:21;13.95;;;10.65;;
40515;SDS011;26216;53.724;9.898;2022-08-19T07:51:49;11.75;;;9.20;;
40515;SDS011;26216;53.724;9.898;2022-08-19T07:54:16;9.00;;;7.90;;
40515;SDS011;26216;53.724;9.898;2022-08-19T07:56:43;10.35;;;8.20;;
40515;SDS011;26216;53.724;9.898;2022-08-19T07:59:09;11.85;;;8.45;;
40515;SDS011;26216;53.724;9.898;2022-08-19T08:01:35;13.32;;;10.20;;
40515;SDS011;26216;53.724;9.898;2022-08-19T08:04:02;9.98;;;8.63;;
40515;SDS011;26216;53.724;9.898;2022-08-19T08:06:47;10.57;;;8.68;;
40515;SDS011;26216;53.724;9.898;2022-08-19T08:09:48;11.50;;;9.57;;
40515;SDS011;26216;53.724;9.898;2022-08-19T08:12:18;8.82;;;7.80;;
40515;SDS011;26216;53.724;9.898;2022-08-19T08:14:51;10.95;;;9.57;;
40515;SDS011;26216;53.724;9.898;2022-08-19T08:17:21;11.43;;;8.95;;
40515;SDS011;26216;53.724;9.898;2022-08-19T08:19:48;12.93;;;9.57;;
40515;SDS011;26216;53.724;9.898;2022-08-19T08:22:16;12.90;;;8.90;;
40515;SDS011;26216;53.724;9.898;2022-08-19T08:25:08;9.05;;;7.68;;
40515;SDS011;26216;53.724;9.898;2022-08-19T08:27:37;9.85;;;8.45;;
40515;SDS011;26216;53.724;9.898;2022-08-19T08:30:08;14.50;;;12.45;;
40515;SDS011;26216;53.724;9.898;2022-08-19T08:35:03;11.15;;;8.43;;
40515;SDS011;26216;53.724;9.898;2022-08-19T08:37:33;11.55;;;9.73;;
40515;SDS011;26216;53.724;9.898;2022-08-19T08:40:02;11.45;;;9.23;;
40515;SDS011;26216;53.724;9.898;2022-08-19T08:42:36;9.15;;;7.97;;
40515;SDS011;26216;53.724;9.898;2022-08-19T08:45:08;13.05;;;9.88;;
40515;SDS011;26216;53.724;9.898;2022-08-19T08:47:41;11.60;;;10.02;;
40515;SDS011;26216;53.724;9.898;2022-08-19T08:52:50;9.20;;;7.50;;
40515;SDS011;26216;53.724;9.898;2022-08-19T08:55:25;11.18;;;9.55;;
40515;SDS011;26216;53.724;9.898;2022-08-19T08:58:16;14.13;;;11.20;;
40515;SDS011;26216;53.724;9.898;2022-08-19T09:00:44;13.93;;;10.35;;
40515;SDS011;26216;53.724;9.898;2022-08-19T09:03:25;13.07;;;11.32;;
40515;SDS011;26216;53.724;9.898;2022-08-19T09:05:56;8.13;;;6.82;;
40515;SDS011;26216;53.724;9.898;2022-08-19T09:11:38;11.60;;;8.75;;
40515;SDS011;26216;53.724;9.898;2022-08-19T09:14:45;13.00;;;10.32;;
40515;SDS011;26216;53.724;9.898;2022-08-19T09:17:11;15.32;;;11.52;;
40515;SDS011;26216;53.724;9.898;2022-08-19T09:22:21;11.70;;;8.65;;
40515;SDS011;26216;53.724;9.898;2022-08-19T09:24:48;11.63;;;9.68;;
40515;SDS011;26216;53.724;9.898;2022-08-19T09:27:17;14.07;;;11.18;;
40515;SDS011;26216;53.724;9.898;2022-08-19T09:29:45;14.57;;;12.07;;
40515;SDS011;26216;53.724;9.898;2022-08-19T09:32:13;14.15;;;11.70;;
40515;SDS011;26216;53.724;9.898;2022-08-19T09:34:39;10.73;;;8.73;;
40515;SDS011;26216;53.724;9.898;2022-08-19T09:37:06;13.77;;;11.40;;
40515;SDS011;26216;53.724;9.898;2022-08-19T09:39:33;15.90;;;12.57;;
40515;SDS011;26216;53.724;9.898;2022-08-19T09:41:59;12.00;;;9.35;;
40515;SDS011;26216;53.724;9.898;2022-08-19T09:44:24;9.65;;;8.40;;
40515;SDS011;26216;53.724;9.898;2022-08-19T09:46:51;15.25;;;12.40;;
40515;SDS011;26216;53.724;9.898;2022-08-19T09:49:17;14.23;;;10.82;;
40515;SDS011;26216;53.724;9.898;2022-08-19T09:51:45;13.13;;;10.00;;
40515;SDS011;26216;53.724;9.898;2022-08-19T09:54:14;13.75;;;11.93;;
40515;SDS011;26216;53.724;9.898;2022-08-19T09:56:40;15.10;;;11.98;;
40515;SDS011;26216;53.724;9.898;2022-08-19T09:59:06;10.73;;;9.02;;
40515;SDS011;26216;53.724;9.898;2022-08-19T10:01:32;12.55;;;11.13;;
40515;SDS011;26216;53.724;9.898;2022-08-19T10:03:58;12.73;;;9.38;;
40515;SDS011;26216;53.724;9.898;2022-08-19T10:06:27;13.35;;;9.77;;
40515;SDS011;26216;53.724;9.898;2022-08-19T10:08:58;8.57;;;7.68;;
40515;SDS011;26216;53.724;9.898;2022-08-19T10:11:25;11.90;;;9.40;;
40515;SDS011;26216;53.724;9.898;2022-08-19T10:13:51;13.60;;;11.10;;
40515;SDS011;26216;53.724;9.898;2022-08-19T10:16:20;14.55;;;11.75;;
40515;SDS011;26216;53.724;9.898;2022-08-19T10:18:48;10.77;;;8.60;;
40515;SDS011;26216;53.724;9.898;2022-08-19T10:21:16;11.35;;;9.02;;
40515;SDS011;26216;53.724;9.898;2022-08-19T10:24:04;12.35;;;11.07;;
40515;SDS011;26216;53.724;9.898;2022-08-19T10:26:33;10.35;;;8.50;;
40515;SDS011;26216;53.724;9.898;2022-08-19T10:29:01;13.27;;;10.75;;
40515;SDS011;26216;53.724;9.898;2022-08-19T10:31:30;8.77;;;7.57;;
40515;SDS011;26216;53.724;9.898;2022-08-19T10:33:57;9.50;;;7.53;;
40515;SDS011;26216;53.724;9.898;2022-08-19T10:36:25;12.13;;;9.63;;
40515;SDS011;26216;53.724;9.898;2022-08-19T10:38:54;16.75;;;11.23;;
40515;SDS011;26216;53.724;9.898;2022-08-19T10:41:26;12.05;;;9.77;;
40515;SDS011;26216;53.724;9.898;2022-08-19T10:43:58;9.60;;;8.40;;
40515;SDS011;26216;53.724;9.898;2022-08-19T10:46:27;10.75;;;8.80;;
40515;SDS011;26216;53.724;9.898;2022-08-19T10:48:56;9.10;;;7.38;;
40515;SDS011;26216;53.724;9.898;2022-08-19T10:51:22;9.40;;;8.18;;
40515;SDS011;26216;53.724;9.898;2022-08-19T10:54:06;10.85;;;8.85;;
40515;SDS011;26216;53.724;9.898;2022-08-19T10:56:33;8.18;;;7.15;;
40515;SDS011;26216;53.724;9.898;2022-08-19T10:59:18;7.10;;;5.75;;
40515;SDS011;26216;53.724;9.898;2022-08-19T11:01:52;6.70;;;6.00;;
40515;SDS011;26216;53.724;9.898;2022-08-19T11:04:30;14.98;;;11.00;;
40515;SDS011;26216;53.724;9.898;2022-08-19T11:06:57;12.45;;;10.60;;
40515;SDS011;26216;53.724;9.898;2022-08-19T11:09:23;9.65;;;7.72;;
40515;SDS011;26216;53.724;9.898;2022-08-19T11:11:51;9.63;;;8.13;;
40515;SDS011;26216;53.724;9.898;2022-08-19T11:14:18;7.25;;;6.32;;
40515;SDS011;26216;53.724;9.898;2022-08-19T11:16:46;7.63;;;6.78;;
40515;SDS011;26216;53.724;9.898;2022-08-19T11:19:14;10.27;;;9.20;;
40515;SDS011;26216;53.724;9.898;2022-08-19T11:21:45;9.35;;;7.32;;
40515;SDS011;26216;53.724;9.898;2022-08-19T11:24:14;11.68;;;9.40;;
40515;SDS011;26216;53.724;9.898;2022-08-19T11:26:43;8.70;;;7.80;;
40515;SDS011;26216;53.724;9.898;2022-08-19T11:29:10;8.43;;;7.00;;
40515;SDS011;26216;53.724;9.898;2022-08-19T11:31:39;8.35;;;7.03;;
40515;SDS011;26216;53.724;9.898;2022-08-19T11:34:09;7.03;;;6.32;;
40515;SDS011;26216;53.724;9.898;2022-08-19T11:36:38;6.80;;;5.68;;
40515;SDS011;26216;53.724;9.898;2022-08-19T11:39:06;9.32;;;8.07;;
40515;SDS011;26216;53.724;9.898;2022-08-19T11:41:33;10.05;;;8.30;;
40515;SDS011;26216;53.724;9.898;2022-08-19T11:43:59;7.63;;;6.60;;
40515;SDS011;26216;53.724;9.898;2022-08-19T11:46:27;7.95;;;7.15;;
40515;SDS011;26216;53.724;9.898;2022-08-19T11:48:58;7.35;;;6.47;;
40515;SDS011;26216;53.724;9.898;2022-08-19T11:51:26;8.88;;;7.38;;
40515;SDS011;26216;53.724;9.898;2022-08-19T11:53:53;8.57;;;7.00;;
40515;SDS011;26216;53.724;9.898;2022-08-19T11:56:20;6.25;;;5.65;;
40515;SDS011;26216;53.724;9.898;2022-08-19T11:58:46;6.00;;;5.40;;
40515;SDS011;26216;53.724;9.898;2022-08-19T12:01:14;6.65;;;5.95;;
40515;SDS011;26216;53.724;9.898;2022-08-19T12:03:41;5.53;;;5.03;;
40515;SDS011;26216;53.724;9.898;2022-08-19T12:06:09;7.97;;;6.85;;
40515;SDS011;26216;53.724;9.898;2022-08-19T12:08:39;9.25;;;8.32;;
40515;SDS011;26216;53.724;9.898;2022-08-19T12:11:06;7.30;;;6.43;;
40515;SDS011;26216;53.724;9.898;2022-08-19T12:13:35;6.53;;;5.75;;
40515;SDS011;26216;53.724;9.898;2022-08-19T12:16:12;13.15;;;9.00;;
40515;SDS011;26216;53.724;9.898;2022-08-19T12:18:41;7.60;;;6.80;;
40515;SDS011;26216;53.724;9.898;2022-08-19T12:21:10;8.85;;;7.68;;
40515;SDS011;26216;53.724;9.898;2022-08-19T12:23:38;10.77;;;9.65;;
40515;SDS011;26216;53.724;9.898;2022-08-19T12:26:05;9.35;;;8.40;;
40515;SDS011;26216;53.724;9.898;2022-08-19T12:28:31;6.05;;;5.45;;
40515;SDS011;26216;53.724;9.898;2022-08-19T12:30:58;9.45;;;7.25;;
40515;SDS011;26216;53.724;9.898;2022-08-19T12:33:24;8.45;;;7.40;;
40515;SDS011;26216;53.724;9.898;2022-08-19T12:35:51;7.05;;;6.03;;
40515;SDS011;26216;53.724;9.898;2022-08-19T12:38:17;6.28;;;5.68;;
40515;SDS011;26216;53.724;9.898;2022-08-19T12:40:47;6.63;;;5.88;;
40515;SDS011;26216;53.724;9.898;2022-08-19T12:43:14;7.82;;;7.03;;
40515;SDS011;26216;53.724;9.898;2022-08-19T12:45:41;6.78;;;5.97;;
40515;SDS011;26216;53.724;9.898;2022-08-19T12:48:08;6.82;;;6.10;;
40515;SDS011;26216;53.724;9.898;2022-08-19T12:50:34;9.13;;;7.70;;
40515;SDS011;26216;53.724;9.898;2022-08-19T12:53:00;7.50;;;6.70;;
40515;SDS011;26216;53.724;9.898;2022-08-19T12:55:26;7.00;;;6.30;;
40515;SDS011;26216;53.724;9.898;2022-08-19T12:57:54;6.07;;;5.47;;
40515;SDS011;26216;53.724;9.898;2022-08-19T13:00:20;8.63;;;7.22;;
40515;SDS011;26216;53.724;9.898;2022-08-19T13:02:48;6.05;;;5.40;;
40515;SDS011;26216;53.724;9.898;2022-08-19T13:05:18;6.07;;;5.47;;
40515;SDS011;26216;53.724;9.898;2022-08-19T13:07:52;8.68;;;7.25;;
40515;SDS011;26216;53.724;9.898;2022-08-19T13:10:24;7.85;;;7.05;;
40515;SDS011;26216;53.724;9.898;2022-08-19T13:12:56;6.97;;;6.28;;
40515;SDS011;26216;53.724;9.898;2022-08-19T13:15:24;8.13;;;6.32;;
40515;SDS011;26216;53.724;9.898;2022-08-19T13:17:54;9.45;;;8.52;;
40515;SDS011;26216;53.724;9.898;2022-08-19T13:20:21;6.30;;;5.70;;
40515;SDS011;26216;53.724;9.898;2022-08-19T13:22:47;6.88;;;6.18;;
40515;SDS011;26216;53.724;9.898;2022-08-19T13:25:14;6.25;;;5.65;;
40515;SDS011;26216;53.724;9.898;2022-08-19T13:27:43;6.13;;;5.53;;
40515;SDS011;26216;53.724;9.898;2022-08-19T13:30:10;4.90;;;4.40;;
40515;SDS011;26216;53.724;9.898;2022-08-19T13:32:56;5.70;;;5.20;;
40515;SDS011;26216;53.724;9.898;2022-08-19T13:35:44;6.72;;;6.13;;
40515;SDS011;26216;53.724;9.898;2022-08-19T13:38:21;5.22;;;4.72;;
40515;SDS011;26216;53.724;9.898;2022-08-19T13:40:48;5.63;;;5.13;;
40515;SDS011;26216;53.724;9.898;2022-08-19T13:43:17;6.40;;;5.80;;
40515;SDS011;26216;53.724;9.898;2022-08-19T13:45:45;5.80;;;5.30;;
40515;SDS011;26216;53.724;9.898;2022-08-19T13:48:11;6.22;;;5.63;;
40515;SDS011;26216;53.724;9.898;2022-08-19T13:50:38;6.72;;;6.03;;
40515;SDS011;26216;53.724;9.898;2022-08-19T13:53:07;7.20;;;6.50;;
40515;SDS011;26216;53.724;9.898;2022-08-19T13:55:34;8.60;;;7.80;;
40515;SDS011;26216;53.724;9.898;2022-08-19T13:58:01;9.45;;;8.55;;
40515;SDS011;26216;53.724;9.898;2022-08-19T14:00:28;8.90;;;8.00;;
40515;SDS011;26216;53.724;9.898;2022-08-19T14:02:56;9.93;;;9.02;;
40515;SDS011;26216;53.724;9.898;2022-08-19T14:05:24;7.18;;;6.47;;
40515;SDS011;26216;53.724;9.898;2022-08-19T14:07:51;8.10;;;7.32;;
40515;SDS011;26216;53.724;9.898;2022-08-19T14:10:18;11.52;;;10.38;;
40515;SDS011;26216;53.724;9.898;2022-08-19T14:12:45;7.85;;;7.10;;
40515;SDS011;26216;53.724;9.898;2022-08-19T14:15:13;7.28;;;6.65;;
40515;SDS011;26216;53.724;9.898;2022-08-19T14:17:41;8.02;;;7.13;;
40515;SDS011;26216;53.724;9.898;2022-08-19T14:20:10;8.25;;;7.45;;
40515;SDS011;26216;53.724;9.898;2022-08-19T14:22:38;10.43;;;8.73;;
40515;SDS011;26216;53.724;9.898;2022-08-19T14:25:07;7.85;;;7.05;;
40515;SDS011;26216;53.724;9.898;2022-08-19T14:27:35;7.07;;;6.47;;
40515;SDS011;26216;53.724;9.898;2022-08-19T14:30:03;6.38;;;5.80;;
40515;SDS011;26216;53.724;9.898;2022-08-19T14:32:30;8.65;;;7.85;;
40515;SDS011;26216;53.724;9.898;2022-08-19T14:34:56;7.22;;;6.53;;
40515;SDS011;26216;53.724;9.898;2022-08-19T14:37:22;7.90;;;7.10;;
40515;SDS011;26216;53.724;9.898;2022-08-19T14:39:48;8.43;;;7.72;;
40515;SDS011;26216;53.724;9.898;2022-08-19T14:42:14;7.95;;;7.25;;
40515;SDS011;26216;53.724;9.898;2022-08-19T14:44:40;8.25;;;7.45;;
40515;SDS011;26216;53.724;9.898;2022-08-19T14:47:07;9.10;;;8.30;;
40515;SDS011;26216;53.724;9.898;2022-08-19T14:49:34;7.80;;;7.10;;
40515;SDS011;26216;53.724;9.898;2022-08-19T14:52:00;8.48;;;7.72;;
40515;SDS011;26216;53.724;9.898;2022-08-19T14:54:26;8.55;;;7.75;;
40515;SDS011;26216;53.724;9.898;2022-08-19T14:56:52;7.13;;;6.45;;
40515;SDS011;26216;53.724;9.898;2022-08-19T14:59:19;9.13;;;8.23;;